sensor_id;sensor_type;location;lat;lon;timestamp;P1;durP1;ratioP1;P2;durP2;ratioP2
52858;SDS011;38721;53.098;6.596;2024-01-11T00:00:10;51.50;;;28.65;;
52858;SDS011;38721;53.098;6.596;2024-01-11T00:02:36;55.35;;;30.08;;
52858;SDS011;38721;53.098;6.596;2024-01-11T00:05:01;51.05;;;28.60;;
52858;SDS011;38721;53.098;6.596;2024-01-11T00:07:27;55.92;;;29.90;;
52858;SDS011;38721;53.098;6.596;2024-01-11T00:09:53;55.17;;;27.92;;
52858;SDS011;38721;53.098;6.596;2024-01-11T00:12:19;58.60;;;30.73;;
52858;SDS011;38721;53.098;6.596;2024-01-11T00:14:44;55.33;;;29.98;;
52858;SDS011;38721;53.098;6.596;2024-01-11T00:17:10;54.55;;;29.58;;
52858;SDS011;38721;53.098;6.596;2024-01-11T00:19:36;56.80;;;30.00;;
52858;SDS011;38721;53.098;6.596;2024-01-11T00:22:02;57.42;;;31.25;;
52858;SDS011;38721;53.098;6.596;2024-01-11T00:24:28;56.22;;;30.25;;
52858;SDS011;38721;53.098;6.596;2024-01-11T00:26:54;59.00;;;30.17;;
52858;SDS011;38721;53.098;6.596;2024-01-11T00:29:19;57.72;;;30.98;;
52858;SDS011;38721;53.098;6.596;2024-01-11T00:31:45;59.25;;;31.27;;
52858;SDS011;38721;53.098;6.596;2024-01-11T00:34:11;57.40;;;31.27;;
52858;SDS011;38721;53.098;6.596;2024-01-11T00:36:36;59.67;;;30.55;;
52858;SDS011;38721;53.098;6.596;2024-01-11T00:39:02;60.45;;;30.63;;
52858;SDS011;38721;53.098;6.596;2024-01-11T00:41:28;61.90;;;30.92;;
52858;SDS011;38721;53.098;6.596;2024-01-11T00:43:54;64.13;;;32.50;;
52858;SDS011;38721;53.098;6.596;2024-01-11T00:46:20;59.15;;;31.23;;
52858;SDS011;38721;53.098;6.596;2024-01-11T00:48:46;59.75;;;32.00;;
52858;SDS011;38721;53.098;6.596;2024-01-11T00:51:12;62.40;;;32.63;;
52858;SDS011;38721;53.098;6.596;2024-01-11T00:53:37;63.65;;;32.25;;
52858;SDS011;38721;53.098;6.596;2024-01-11T00:56:03;60.65;;;32.10;;
52858;SDS011;38721;53.098;6.596;2024-01-11T00:58:29;67.05;;;34.70;;
52858;SDS011;38721;53.098;6.596;2024-01-11T01:00:54;64.22;;;34.03;;
52858;SDS011;38721;53.098;6.596;2024-01-11T01:03:21;67.00;;;34.05;;
52858;SDS011;38721;53.098;6.596;2024-01-11T01:05:47;67.57;;;33.53;;
52858;SDS011;38721;53.098;6.596;2024-01-11T01:08:13;70.93;;;34.33;;
52858;SDS011;38721;53.098;6.596;2024-01-11T01:10:39;65.07;;;33.08;;
52858;SDS011;38721;53.098;6.596;2024-01-11T01:13:05;64.47;;;32.00;;
52858;SDS011;38721;53.098;6.596;2024-01-11T01:15:30;62.58;;;34.83;;
52858;SDS011;38721;53.098;6.596;2024-01-11T01:17:56;66.63;;;33.85;;
52858;SDS011;38721;53.098;6.596;2024-01-11T01:20:22;67.03;;;34.72;;
52858;SDS011;38721;53.098;6.596;2024-01-11T01:22:49;67.93;;;33.75;;
52858;SDS011;38721;53.098;6.596;2024-01-11T01:25:15;68.22;;;33.65;;
52858;SDS011;38721;53.098;6.596;2024-01-11T01:27:41;67.47;;;33.78;;
52858;SDS011;38721;53.098;6.596;2024-01-11T01:30:06;66.65;;;34.33;;
52858;SDS011;38721;53.098;6.596;2024-01-11T01:32:33;66.07;;;34.00;;
52858;SDS011;38721;53.098;6.596;2024-01-11T01:34:59;69.20;;;35.45;;
52858;SDS011;38721;53.098;6.596;2024-01-11T01:37:25;70.88;;;35.15;;
52858;SDS011;38721;53.098;6.596;2024-01-11T01:39:51;70.93;;;36.83;;
52858;SDS011;38721;53.098;6.596;2024-01-11T01:42:17;67.63;;;34.42;;
52858;SDS011;38721;53.098;6.596;2024-01-11T01:44:43;69.00;;;34.63;;
52858;SDS011;38721;53.098;6.596;2024-01-11T01:47:08;65.82;;;34.72;;
52858;SDS011;38721;53.098;6.596;2024-01-11T01:49:38;65.82;;;34.67;;
52858;SDS011;38721;53.098;6.596;2024-01-11T01:52:05;68.60;;;35.08;;
52858;SDS011;38721;53.098;6.596;2024-01-11T01:54:32;68.10;;;34.03;;
52858;SDS011;38721;53.098;6.596;2024-01-11T01:56:58;69.88;;;35.78;;
52858;SDS011;38721;53.098;6.596;2024-01-11T01:59:25;69.40;;;35.67;;
52858;SDS011;38721;53.098;6.596;2024-01-11T02:01:52;67.32;;;34.53;;
52858;SDS011;38721;53.098;6.596;2024-01-11T02:04:18;67.47;;;34.60;;
52858;SDS011;38721;53.098;6.596;2024-01-11T02:06:44;65.78;;;34.83;;
52858;SDS011;38721;53.098;6.596;2024-01-11T02:09:12;63.45;;;34.65;;
52858;SDS011;38721;53.098;6.596;2024-01-11T02:11:38;64.53;;;34.63;;
52858;SDS011;38721;53.098;6.596;2024-01-11T02:14:06;73.60;;;36.47;;
52858;SDS011;38721;53.098;6.596;2024-01-11T02:16:33;71.07;;;35.85;;
52858;SDS011;38721;53.098;6.596;2024-01-11T02:18:58;66.82;;;35.30;;
52858;SDS011;38721;53.098;6.596;2024-01-11T02:21:25;67.95;;;36.75;;
52858;SDS011;38721;53.098;6.596;2024-01-11T02:24:14;71.95;;;35.88;;
52858;SDS011;38721;53.098;6.596;2024-01-11T02:26:58;72.60;;;35.15;;
52858;SDS011;38721;53.098;6.596;2024-01-11T02:29:25;66.70;;;35.92;;
52858;SDS011;38721;53.098;6.596;2024-01-11T02:31:51;72.30;;;36.67;;
52858;SDS011;38721;53.098;6.596;2024-01-11T02:34:17;66.28;;;34.97;;
52858;SDS011;38721;53.098;6.596;2024-01-11T02:36:43;73.10;;;37.60;;
52858;SDS011;38721;53.098;6.596;2024-01-11T02:39:09;70.35;;;34.72;;
52858;SDS011;38721;53.098;6.596;2024-01-11T02:41:37;74.95;;;36.38;;
52858;SDS011;38721;53.098;6.596;2024-01-11T02:44:02;73.85;;;35.53;;
52858;SDS011;38721;53.098;6.596;2024-01-11T02:46:29;73.72;;;38.55;;
52858;SDS011;38721;53.098;6.596;2024-01-11T02:48:55;79.65;;;38.30;;
52858;SDS011;38721;53.098;6.596;2024-01-11T02:51:21;81.78;;;38.42;;
52858;SDS011;38721;53.098;6.596;2024-01-11T02:53:47;73.75;;;35.83;;
52858;SDS011;38721;53.098;6.596;2024-01-11T02:56:12;72.32;;;35.65;;
52858;SDS011;38721;53.098;6.596;2024-01-11T02:58:38;73.63;;;35.78;;
52858;SDS011;38721;53.098;6.596;2024-01-11T03:01:04;76.70;;;36.40;;
52858;SDS011;38721;53.098;6.596;2024-01-11T03:03:29;77.68;;;38.63;;
52858;SDS011;38721;53.098;6.596;2024-01-11T03:05:55;77.05;;;36.35;;
52858;SDS011;38721;53.098;6.596;2024-01-11T03:08:21;75.13;;;36.97;;
52858;SDS011;38721;53.098;6.596;2024-01-11T03:10:47;77.18;;;36.92;;
52858;SDS011;38721;53.098;6.596;2024-01-11T03:13:13;77.82;;;38.53;;
52858;SDS011;38721;53.098;6.596;2024-01-11T03:15:38;76.07;;;38.45;;
52858;SDS011;38721;53.098;6.596;2024-01-11T03:18:04;77.70;;;40.03;;
52858;SDS011;38721;53.098;6.596;2024-01-11T03:20:30;76.85;;;36.80;;
52858;SDS011;38721;53.098;6.596;2024-01-11T03:22:56;76.40;;;34.45;;
52858;SDS011;38721;53.098;6.596;2024-01-11T03:25:21;74.20;;;36.50;;
52858;SDS011;38721;53.098;6.596;2024-01-11T03:27:47;71.05;;;35.17;;
52858;SDS011;38721;53.098;6.596;2024-01-11T03:30:13;72.28;;;36.05;;
52858;SDS011;38721;53.098;6.596;2024-01-11T03:32:39;77.00;;;38.58;;
52858;SDS011;38721;53.098;6.596;2024-01-11T03:35:08;70.32;;;36.67;;
52858;SDS011;38721;53.098;6.596;2024-01-11T03:37:34;68.30;;;35.28;;
52858;SDS011;38721;53.098;6.596;2024-01-11T03:40:02;73.35;;;35.53;;
52858;SDS011;38721;53.098;6.596;2024-01-11T03:42:28;67.90;;;33.28;;
52858;SDS011;38721;53.098;6.596;2024-01-11T03:44:54;77.30;;;34.92;;
52858;SDS011;38721;53.098;6.596;2024-01-11T03:47:20;72.28;;;35.53;;
52858;SDS011;38721;53.098;6.596;2024-01-11T03:49:46;68.50;;;34.05;;
52858;SDS011;38721;53.098;6.596;2024-01-11T03:52:12;65.85;;;33.47;;
52858;SDS011;38721;53.098;6.596;2024-01-11T03:54:38;70.93;;;33.85;;
52858;SDS011;38721;53.098;6.596;2024-01-11T03:57:03;69.70;;;33.58;;
52858;SDS011;38721;53.098;6.596;2024-01-11T03:59:29;66.35;;;33.17;;
52858;SDS011;38721;53.098;6.596;2024-01-11T04:01:55;70.97;;;33.88;;
52858;SDS011;38721;53.098;6.596;2024-01-11T04:04:22;67.75;;;33.20;;
52858;SDS011;38721;53.098;6.596;2024-01-11T04:06:48;68.70;;;34.08;;
52858;SDS011;38721;53.098;6.596;2024-01-11T04:09:14;72.88;;;34.72;;
52858;SDS011;38721;53.098;6.596;2024-01-11T04:11:40;73.25;;;35.95;;
52858;SDS011;38721;53.098;6.596;2024-01-11T04:14:06;66.72;;;32.47;;
52858;SDS011;38721;53.098;6.596;2024-01-11T04:16:32;65.35;;;33.72;;
52858;SDS011;38721;53.098;6.596;2024-01-11T04:18:57;66.55;;;33.70;;
52858;SDS011;38721;53.098;6.596;2024-01-11T04:21:25;66.63;;;34.08;;
52858;SDS011;38721;53.098;6.596;2024-01-11T04:23:54;71.00;;;35.00;;
52858;SDS011;38721;53.098;6.596;2024-01-11T04:26:21;68.93;;;34.55;;
52858;SDS011;38721;53.098;6.596;2024-01-11T04:28:47;69.85;;;33.30;;
52858;SDS011;38721;53.098;6.596;2024-01-11T04:31:14;67.05;;;34.35;;
52858;SDS011;38721;53.098;6.596;2024-01-11T04:33:42;68.60;;;35.22;;
52858;SDS011;38721;53.098;6.596;2024-01-11T04:36:08;63.10;;;32.95;;
52858;SDS011;38721;53.098;6.596;2024-01-11T04:38:35;67.85;;;32.55;;
52858;SDS011;38721;53.098;6.596;2024-01-11T04:41:02;65.25;;;34.90;;
52858;SDS011;38721;53.098;6.596;2024-01-11T04:43:32;71.65;;;34.25;;
52858;SDS011;38721;53.098;6.596;2024-01-11T04:45:58;67.95;;;34.22;;
52858;SDS011;38721;53.098;6.596;2024-01-11T04:48:24;66.05;;;33.17;;
52858;SDS011;38721;53.098;6.596;2024-01-11T04:50:50;76.70;;;35.85;;
52858;SDS011;38721;53.098;6.596;2024-01-11T04:53:15;70.35;;;35.10;;
52858;SDS011;38721;53.098;6.596;2024-01-11T04:55:41;75.93;;;36.17;;
52858;SDS011;38721;53.098;6.596;2024-01-11T04:58:07;76.82;;;38.10;;
52858;SDS011;38721;53.098;6.596;2024-01-11T05:00:32;73.15;;;37.33;;
52858;SDS011;38721;53.098;6.596;2024-01-11T05:02:58;82.85;;;38.78;;
52858;SDS011;38721;53.098;6.596;2024-01-11T05:05:24;75.78;;;40.58;;
52858;SDS011;38721;53.098;6.596;2024-01-11T05:07:50;79.70;;;39.55;;
52858;SDS011;38721;53.098;6.596;2024-01-11T05:10:16;80.18;;;39.65;;
52858;SDS011;38721;53.098;6.596;2024-01-11T05:12:42;85.38;;;40.17;;
52858;SDS011;38721;53.098;6.596;2024-01-11T05:15:08;76.63;;;38.72;;
52858;SDS011;38721;53.098;6.596;2024-01-11T05:17:34;81.93;;;39.42;;
52858;SDS011;38721;53.098;6.596;2024-01-11T05:19:59;75.40;;;39.83;;
52858;SDS011;38721;53.098;6.596;2024-01-11T05:22:25;82.30;;;40.65;;
52858;SDS011;38721;53.098;6.596;2024-01-11T05:24:51;80.07;;;38.83;;
52858;SDS011;38721;53.098;6.596;2024-01-11T05:27:17;79.40;;;41.63;;
52858;SDS011;38721;53.098;6.596;2024-01-11T05:29:42;86.43;;;41.45;;
52858;SDS011;38721;53.098;6.596;2024-01-11T05:32:08;81.18;;;41.33;;
52858;SDS011;38721;53.098;6.596;2024-01-11T05:34:34;81.00;;;40.88;;
52858;SDS011;38721;53.098;6.596;2024-01-11T05:37:00;79.95;;;42.53;;
52858;SDS011;38721;53.098;6.596;2024-01-11T05:39:25;78.97;;;40.85;;
52858;SDS011;38721;53.098;6.596;2024-01-11T05:41:52;84.45;;;42.60;;
52858;SDS011;38721;53.098;6.596;2024-01-11T05:44:18;83.35;;;42.47;;
52858;SDS011;38721;53.098;6.596;2024-01-11T05:46:44;84.75;;;42.95;;
52858;SDS011;38721;53.098;6.596;2024-01-11T05:49:10;86.20;;;44.40;;
52858;SDS011;38721;53.098;6.596;2024-01-11T05:51:35;84.00;;;43.05;;
52858;SDS011;38721;53.098;6.596;2024-01-11T05:54:01;78.25;;;43.85;;
52858;SDS011;38721;53.098;6.596;2024-01-11T05:56:27;83.88;;;43.22;;
52858;SDS011;38721;53.098;6.596;2024-01-11T05:58:52;79.90;;;42.22;;
52858;SDS011;38721;53.098;6.596;2024-01-11T06:01:18;80.60;;;43.05;;
52858;SDS011;38721;53.098;6.596;2024-01-11T06:03:44;82.68;;;43.53;;
52858;SDS011;38721;53.098;6.596;2024-01-11T06:06:10;82.30;;;42.28;;
52858;SDS011;38721;53.098;6.596;2024-01-11T06:08:36;85.43;;;45.85;;
52858;SDS011;38721;53.098;6.596;2024-01-11T06:11:02;84.22;;;43.17;;
52858;SDS011;38721;53.098;6.596;2024-01-11T06:13:29;85.57;;;43.40;;
52858;SDS011;38721;53.098;6.596;2024-01-11T06:15:55;79.38;;;42.97;;
52858;SDS011;38721;53.098;6.596;2024-01-11T06:18:20;91.15;;;45.97;;
52858;SDS011;38721;53.098;6.596;2024-01-11T06:20:46;89.22;;;44.45;;
52858;SDS011;38721;53.098;6.596;2024-01-11T06:23:12;86.50;;;44.83;;
52858;SDS011;38721;53.098;6.596;2024-01-11T06:25:38;81.05;;;43.47;;
52858;SDS011;38721;53.098;6.596;2024-01-11T06:28:04;87.30;;;45.40;;
52858;SDS011;38721;53.098;6.596;2024-01-11T06:30:31;86.53;;;46.42;;
52858;SDS011;38721;53.098;6.596;2024-01-11T06:32:57;84.95;;;44.10;;
52858;SDS011;38721;53.098;6.596;2024-01-11T06:35:23;85.93;;;45.92;;
52858;SDS011;38721;53.098;6.596;2024-01-11T06:37:49;85.60;;;43.28;;
52858;SDS011;38721;53.098;6.596;2024-01-11T06:40:14;86.35;;;43.65;;
52858;SDS011;38721;53.098;6.596;2024-01-11T06:42:40;89.05;;;45.28;;
52858;SDS011;38721;53.098;6.596;2024-01-11T06:45:06;84.25;;;45.47;;
52858;SDS011;38721;53.098;6.596;2024-01-11T06:47:33;80.28;;;42.58;;
52858;SDS011;38721;53.098;6.596;2024-01-11T06:49:59;87.22;;;44.92;;
52858;SDS011;38721;53.098;6.596;2024-01-11T06:52:24;88.93;;;45.03;;
52858;SDS011;38721;53.098;6.596;2024-01-11T06:54:50;90.18;;;45.72;;
52858;SDS011;38721;53.098;6.596;2024-01-11T06:57:16;87.95;;;46.03;;
52858;SDS011;38721;53.098;6.596;2024-01-11T06:59:42;87.03;;;44.22;;
52858;SDS011;38721;53.098;6.596;2024-01-11T07:02:08;83.57;;;45.90;;
52858;SDS011;38721;53.098;6.596;2024-01-11T07:04:34;85.55;;;44.20;;
52858;SDS011;38721;53.098;6.596;2024-01-11T07:07:00;97.70;;;48.20;;
52858;SDS011;38721;53.098;6.596;2024-01-11T07:09:26;84.03;;;45.40;;
52858;SDS011;38721;53.098;6.596;2024-01-11T07:11:51;83.55;;;43.38;;
52858;SDS011;38721;53.098;6.596;2024-01-11T07:14:17;81.93;;;44.35;;
52858;SDS011;38721;53.098;6.596;2024-01-11T07:16:43;81.60;;;44.67;;
52858;SDS011;38721;53.098;6.596;2024-01-11T07:19:09;88.45;;;47.38;;
52858;SDS011;38721;53.098;6.596;2024-01-11T07:21:36;84.63;;;44.53;;
52858;SDS011;38721;53.098;6.596;2024-01-11T07:24:02;93.25;;;44.92;;
52858;SDS011;38721;53.098;6.596;2024-01-11T07:26:28;83.28;;;43.10;;
52858;SDS011;38721;53.098;6.596;2024-01-11T07:28:53;81.53;;;44.63;;
52858;SDS011;38721;53.098;6.596;2024-01-11T07:31:22;85.93;;;45.33;;
52858;SDS011;38721;53.098;6.596;2024-01-11T07:33:48;88.05;;;45.50;;
52858;SDS011;38721;53.098;6.596;2024-01-11T07:36:14;84.10;;;44.55;;
52858;SDS011;38721;53.098;6.596;2024-01-11T07:38:39;82.00;;;45.25;;
52858;SDS011;38721;53.098;6.596;2024-01-11T07:41:05;80.97;;;44.38;;
52858;SDS011;38721;53.098;6.596;2024-01-11T07:43:31;82.85;;;44.30;;
52858;SDS011;38721;53.098;6.596;2024-01-11T07:46:00;85.30;;;43.38;;
52858;SDS011;38721;53.098;6.596;2024-01-11T07:48:30;82.82;;;44.40;;
52858;SDS011;38721;53.098;6.596;2024-01-11T07:50:57;80.85;;;43.50;;
52858;SDS011;38721;53.098;6.596;2024-01-11T07:53:25;83.90;;;45.58;;
52858;SDS011;38721;53.098;6.596;2024-01-11T07:55:51;76.75;;;42.97;;
52858;SDS011;38721;53.098;6.596;2024-01-11T07:58:17;82.88;;;45.28;;
52858;SDS011;38721;53.098;6.596;2024-01-11T08:00:43;82.38;;;43.17;;
52858;SDS011;38721;53.098;6.596;2024-01-11T08:03:10;88.38;;;47.30;;
52858;SDS011;38721;53.098;6.596;2024-01-11T08:05:35;81.78;;;44.75;;
52858;SDS011;38721;53.098;6.596;2024-01-11T08:08:01;82.75;;;44.75;;
52858;SDS011;38721;53.098;6.596;2024-01-11T08:10:28;83.50;;;44.08;;
52858;SDS011;38721;53.098;6.596;2024-01-11T08:12:57;78.82;;;43.47;;
52858;SDS011;38721;53.098;6.596;2024-01-11T08:15:24;83.90;;;44.78;;
52858;SDS011;38721;53.098;6.596;2024-01-11T08:17:50;81.40;;;43.67;;
52858;SDS011;38721;53.098;6.596;2024-01-11T08:20:16;79.13;;;42.78;;
52858;SDS011;38721;53.098;6.596;2024-01-11T08:22:42;78.35;;;43.42;;
52858;SDS011;38721;53.098;6.596;2024-01-11T08:25:13;79.10;;;43.55;;
52858;SDS011;38721;53.098;6.596;2024-01-11T08:27:39;80.35;;;44.22;;
52858;SDS011;38721;53.098;6.596;2024-01-11T08:30:06;79.63;;;44.00;;
52858;SDS011;38721;53.098;6.596;2024-01-11T08:32:33;86.68;;;46.50;;
52858;SDS011;38721;53.098;6.596;2024-01-11T08:35:04;76.75;;;42.30;;
52858;SDS011;38721;53.098;6.596;2024-01-11T08:37:31;78.07;;;43.28;;
52858;SDS011;38721;53.098;6.596;2024-01-11T08:39:57;75.10;;;42.03;;
52858;SDS011;38721;53.098;6.596;2024-01-11T08:42:23;73.65;;;41.45;;
52858;SDS011;38721;53.098;6.596;2024-01-11T08:44:49;80.95;;;43.78;;
52858;SDS011;38721;53.098;6.596;2024-01-11T08:47:14;83.63;;;43.17;;
52858;SDS011;38721;53.098;6.596;2024-01-11T08:49:40;75.13;;;41.67;;
52858;SDS011;38721;53.098;6.596;2024-01-11T08:52:07;78.75;;;42.63;;
52858;SDS011;38721;53.098;6.596;2024-01-11T08:54:36;74.38;;;39.33;;
52858;SDS011;38721;53.098;6.596;2024-01-11T08:57:02;72.55;;;40.22;;
52858;SDS011;38721;53.098;6.596;2024-01-11T08:59:28;72.00;;;39.38;;
52858;SDS011;38721;53.098;6.596;2024-01-11T09:01:54;69.38;;;39.33;;
52858;SDS011;38721;53.098;6.596;2024-01-11T09:04:20;68.97;;;37.78;;
52858;SDS011;38721;53.098;6.596;2024-01-11T09:06:45;69.20;;;38.45;;
52858;SDS011;38721;53.098;6.596;2024-01-11T09:09:11;72.53;;;38.78;;
52858;SDS011;38721;53.098;6.596;2024-01-11T09:11:41;66.72;;;38.42;;
52858;SDS011;38721;53.098;6.596;2024-01-11T09:14:07;70.45;;;39.08;;
52858;SDS011;38721;53.098;6.596;2024-01-11T09:16:36;66.07;;;37.17;;
52858;SDS011;38721;53.098;6.596;2024-01-11T09:19:02;68.97;;;39.50;;
52858;SDS011;38721;53.098;6.596;2024-01-11T09:21:28;71.43;;;40.83;;
52858;SDS011;38721;53.098;6.596;2024-01-11T09:23:53;72.63;;;39.85;;
52858;SDS011;38721;53.098;6.596;2024-01-11T09:26:20;72.60;;;39.03;;
52858;SDS011;38721;53.098;6.596;2024-01-11T09:28:47;71.97;;;39.55;;
52858;SDS011;38721;53.098;6.596;2024-01-11T09:31:13;73.57;;;39.42;;
52858;SDS011;38721;53.098;6.596;2024-01-11T09:33:39;66.85;;;37.80;;
52858;SDS011;38721;53.098;6.596;2024-01-11T09:36:07;65.90;;;39.35;;
52858;SDS011;38721;53.098;6.596;2024-01-11T09:38:33;62.67;;;35.63;;
52858;SDS011;38721;53.098;6.596;2024-01-11T09:43:35;61.38;;;34.72;;
52858;SDS011;38721;53.098;6.596;2024-01-11T09:46:04;64.38;;;35.58;;
52858;SDS011;38721;53.098;6.596;2024-01-11T09:48:32;57.88;;;34.20;;
52858;SDS011;38721;53.098;6.596;2024-01-11T09:51:03;54.42;;;32.00;;
52858;SDS011;38721;53.098;6.596;2024-01-11T09:53:32;52.70;;;31.50;;
52858;SDS011;38721;53.098;6.596;2024-01-11T09:55:59;52.20;;;31.85;;
52858;SDS011;38721;53.098;6.596;2024-01-11T09:58:25;57.03;;;33.75;;
52858;SDS011;38721;53.098;6.596;2024-01-11T10:00:58;55.10;;;32.17;;
52858;SDS011;38721;53.098;6.596;2024-01-11T10:03:24;53.10;;;31.92;;
52858;SDS011;38721;53.098;6.596;2024-01-11T10:05:52;48.22;;;30.75;;
52858;SDS011;38721;53.098;6.596;2024-01-11T10:08:22;47.53;;;29.98;;
52858;SDS011;38721;53.098;6.596;2024-01-11T10:10:48;51.85;;;29.55;;
52858;SDS011;38721;53.098;6.596;2024-01-11T10:13:18;50.78;;;30.27;;
52858;SDS011;38721;53.098;6.596;2024-01-11T10:15:44;50.22;;;29.63;;
52858;SDS011;38721;53.098;6.596;2024-01-11T10:18:10;47.97;;;29.77;;
52858;SDS011;38721;53.098;6.596;2024-01-11T10:20:36;49.95;;;28.92;;
52858;SDS011;38721;53.098;6.596;2024-01-11T10:23:02;51.88;;;31.23;;
52858;SDS011;38721;53.098;6.596;2024-01-11T10:25:28;48.80;;;29.42;;
52858;SDS011;38721;53.098;6.596;2024-01-11T10:27:54;47.65;;;29.30;;
52858;SDS011;38721;53.098;6.596;2024-01-11T10:30:20;51.25;;;30.58;;
52858;SDS011;38721;53.098;6.596;2024-01-11T10:32:48;52.03;;;30.30;;
52858;SDS011;38721;53.098;6.596;2024-01-11T10:35:15;50.65;;;30.08;;
52858;SDS011;38721;53.098;6.596;2024-01-11T10:37:43;46.22;;;28.83;;
52858;SDS011;38721;53.098;6.596;2024-01-11T10:40:12;50.67;;;30.63;;
52858;SDS011;38721;53.098;6.596;2024-01-11T10:42:40;47.38;;;28.67;;
52858;SDS011;38721;53.098;6.596;2024-01-11T10:45:14;47.03;;;28.85;;
52858;SDS011;38721;53.098;6.596;2024-01-11T10:47:51;45.22;;;28.23;;
52858;SDS011;38721;53.098;6.596;2024-01-11T10:50:26;45.85;;;28.10;;
52858;SDS011;38721;53.098;6.596;2024-01-11T10:53:03;47.08;;;29.30;;
52858;SDS011;38721;53.098;6.596;2024-01-11T10:55:31;46.25;;;27.75;;
52858;SDS011;38721;53.098;6.596;2024-01-11T10:57:59;48.33;;;29.65;;
52858;SDS011;38721;53.098;6.596;2024-01-11T11:00:29;48.22;;;29.77;;
52858;SDS011;38721;53.098;6.596;2024-01-11T11:02:58;48.42;;;30.00;;
52858;SDS011;38721;53.098;6.596;2024-01-11T11:05:25;44.50;;;28.13;;
52858;SDS011;38721;53.098;6.596;2024-01-11T11:07:54;45.75;;;28.90;;
52858;SDS011;38721;53.098;6.596;2024-01-11T11:10:21;48.15;;;28.88;;
52858;SDS011;38721;53.098;6.596;2024-01-11T11:12:48;43.42;;;27.30;;
52858;SDS011;38721;53.098;6.596;2024-01-11T11:15:14;47.03;;;28.55;;
52858;SDS011;38721;53.098;6.596;2024-01-11T11:17:40;44.92;;;27.27;;
52858;SDS011;38721;53.098;6.596;2024-01-11T11:20:08;45.22;;;27.38;;
52858;SDS011;38721;53.098;6.596;2024-01-11T11:22:41;45.05;;;28.75;;
52858;SDS011;38721;53.098;6.596;2024-01-11T11:25:10;43.67;;;28.10;;
52858;SDS011;38721;53.098;6.596;2024-01-11T11:27:49;44.55;;;28.05;;
52858;SDS011;38721;53.098;6.596;2024-01-11T11:30:15;45.25;;;27.73;;
52858;SDS011;38721;53.098;6.596;2024-01-11T11:32:45;45.58;;;28.10;;
52858;SDS011;38721;53.098;6.596;2024-01-11T11:35:11;44.25;;;27.45;;
52858;SDS011;38721;53.098;6.596;2024-01-11T11:37:38;44.50;;;28.02;;
52858;SDS011;38721;53.098;6.596;2024-01-11T11:40:08;46.22;;;28.10;;
52858;SDS011;38721;53.098;6.596;2024-01-11T11:42:37;45.55;;;27.55;;
52858;SDS011;38721;53.098;6.596;2024-01-11T11:45:05;47.88;;;28.17;;
52858;SDS011;38721;53.098;6.596;2024-01-11T11:47:35;45.97;;;27.63;;
52858;SDS011;38721;53.098;6.596;2024-01-11T11:50:05;43.88;;;27.40;;
52858;SDS011;38721;53.098;6.596;2024-01-11T11:52:34;42.08;;;25.98;;
52858;SDS011;38721;53.098;6.596;2024-01-11T11:55:02;40.75;;;25.13;;
52858;SDS011;38721;53.098;6.596;2024-01-11T11:57:28;40.60;;;25.80;;
52858;SDS011;38721;53.098;6.596;2024-01-11T11:59:57;43.60;;;26.00;;
52858;SDS011;38721;53.098;6.596;2024-01-11T12:02:24;41.25;;;27.33;;
52858;SDS011;38721;53.098;6.596;2024-01-11T12:04:51;38.33;;;25.00;;
52858;SDS011;38721;53.098;6.596;2024-01-11T12:07:18;41.47;;;26.42;;
52858;SDS011;38721;53.098;6.596;2024-01-11T12:09:46;40.85;;;24.77;;
52858;SDS011;38721;53.098;6.596;2024-01-11T12:12:12;38.15;;;25.08;;
52858;SDS011;38721;53.098;6.596;2024-01-11T12:14:39;41.30;;;26.05;;
52858;SDS011;38721;53.098;6.596;2024-01-11T12:17:06;40.80;;;24.60;;
52858;SDS011;38721;53.098;6.596;2024-01-11T12:19:32;42.75;;;26.23;;
52858;SDS011;38721;53.098;6.596;2024-01-11T12:22:00;40.10;;;24.77;;
52858;SDS011;38721;53.098;6.596;2024-01-11T12:24:27;39.55;;;24.98;;
52858;SDS011;38721;53.098;6.596;2024-01-11T12:26:56;41.95;;;25.02;;
52858;SDS011;38721;53.098;6.596;2024-01-11T12:29:24;38.22;;;24.98;;
52858;SDS011;38721;53.098;6.596;2024-01-11T12:31:51;38.75;;;25.25;;
52858;SDS011;38721;53.098;6.596;2024-01-11T12:34:17;39.45;;;25.30;;
52858;SDS011;38721;53.098;6.596;2024-01-11T12:36:43;40.60;;;25.70;;
52858;SDS011;38721;53.098;6.596;2024-01-11T12:39:12;43.08;;;24.90;;
52858;SDS011;38721;53.098;6.596;2024-01-11T12:41:38;39.38;;;24.45;;
52858;SDS011;38721;53.098;6.596;2024-01-11T12:44:04;39.72;;;25.27;;
52858;SDS011;38721;53.098;6.596;2024-01-11T12:46:31;39.85;;;25.40;;
52858;SDS011;38721;53.098;6.596;2024-01-11T12:48:57;42.67;;;24.45;;
52858;SDS011;38721;53.098;6.596;2024-01-11T12:51:23;41.65;;;25.05;;
52858;SDS011;38721;53.098;6.596;2024-01-11T12:53:51;39.90;;;24.92;;
52858;SDS011;38721;53.098;6.596;2024-01-11T12:56:18;40.08;;;25.13;;
52858;SDS011;38721;53.098;6.596;2024-01-11T12:58:46;39.70;;;25.48;;
52858;SDS011;38721;53.098;6.596;2024-01-11T13:01:12;45.72;;;25.23;;
52858;SDS011;38721;53.098;6.596;2024-01-11T13:03:44;39.92;;;25.38;;
52858;SDS011;38721;53.098;6.596;2024-01-11T13:06:14;43.53;;;24.55;;
52858;SDS011;38721;53.098;6.596;2024-01-11T13:08:40;39.70;;;24.58;;
52858;SDS011;38721;53.098;6.596;2024-01-11T13:11:07;40.05;;;24.58;;
52858;SDS011;38721;53.098;6.596;2024-01-11T13:13:34;41.58;;;25.17;;
52858;SDS011;38721;53.098;6.596;2024-01-11T13:16:01;37.97;;;24.88;;
52858;SDS011;38721;53.098;6.596;2024-01-11T13:18:31;40.47;;;25.77;;
52858;SDS011;38721;53.098;6.596;2024-01-11T13:20:57;41.17;;;26.17;;
52858;SDS011;38721;53.098;6.596;2024-01-11T13:23:23;42.40;;;25.73;;
52858;SDS011;38721;53.098;6.596;2024-01-11T13:25:52;41.17;;;24.67;;
52858;SDS011;38721;53.098;6.596;2024-01-11T13:28:18;39.60;;;25.48;;
52858;SDS011;38721;53.098;6.596;2024-01-11T13:30:44;40.50;;;25.02;;
52858;SDS011;38721;53.098;6.596;2024-01-11T13:33:11;40.38;;;24.92;;
52858;SDS011;38721;53.098;6.596;2024-01-11T13:35:38;42.17;;;26.13;;
52858;SDS011;38721;53.098;6.596;2024-01-11T13:38:05;41.00;;;25.10;;
52858;SDS011;38721;53.098;6.596;2024-01-11T13:40:32;40.75;;;25.20;;
52858;SDS011;38721;53.098;6.596;2024-01-11T13:42:58;40.30;;;25.30;;
52858;SDS011;38721;53.098;6.596;2024-01-11T13:45:24;44.33;;;25.85;;
52858;SDS011;38721;53.098;6.596;2024-01-11T13:47:51;40.85;;;25.60;;
52858;SDS011;38721;53.098;6.596;2024-01-11T13:50:21;41.10;;;26.15;;
52858;SDS011;38721;53.098;6.596;2024-01-11T13:52:47;43.38;;;25.88;;
52858;SDS011;38721;53.098;6.596;2024-01-11T13:55:13;41.60;;;26.10;;
52858;SDS011;38721;53.098;6.596;2024-01-11T13:57:39;43.47;;;25.88;;
52858;SDS011;38721;53.098;6.596;2024-01-11T14:00:07;42.85;;;25.92;;
52858;SDS011;38721;53.098;6.596;2024-01-11T14:02:36;44.33;;;27.98;;
52858;SDS011;38721;53.098;6.596;2024-01-11T14:05:02;40.83;;;25.75;;
52858;SDS011;38721;53.098;6.596;2024-01-11T14:07:29;43.13;;;25.92;;
52858;SDS011;38721;53.098;6.596;2024-01-11T14:09:58;41.15;;;26.45;;
52858;SDS011;38721;53.098;6.596;2024-01-11T14:12:24;40.85;;;26.30;;
52858;SDS011;38721;53.098;6.596;2024-01-11T14:14:50;43.58;;;26.00;;
52858;SDS011;38721;53.098;6.596;2024-01-11T14:17:16;43.42;;;26.70;;
52858;SDS011;38721;53.098;6.596;2024-01-11T14:19:41;42.85;;;26.80;;